Paramount Hydra — 2CWC3 — position and weather

sailwx.info

Track history (hours):
 
Tides and Currents Weather Stations Pressure Air Temp Water Temp Dewpoint Dewpoint Depression Visibility Wind Speed Wind Dir Waves Ship Positions

Paramount Hydra

Last reported at 2018-Apr-25 23:16 UTC. Time now 2018-Apr-26 11:27 UTC.
Position N 33°01' W 120°14'.

Length 250 m; draft 8.6 m.

Type: Tanker. MMSI: 235076283.

Date/timePositionNaut miles runAvg speedWind from/ knotsBaromVisibWave heightAir tempDewpointWater temp
2018-Apr-25 23:16N 33°01' W 120°14'313.0
2018-Apr-25 23:00N 33°04' W 120°16'612.3
2018-Apr-25 22:30N 33°09' W 120°21'611.9
2018-Apr-25 22:00N 33°14' W 120°25'612.0
2018-Apr-25 21:30N 33°19' W 120°28'612.3
2018-Apr-25 21:00N 33°24' W 120°33'612.5
2018-Apr-25 20:30N 33°29' W 120°36'612.4
2018-Apr-25 20:00N 33°35' W 120°39'612.2
2018-Apr-25 19:30N 33°40' W 120°42'612.0
2018-Apr-25 19:00N 33°46' W 120°46'611.9
2018-Apr-25 18:28N 33°51' W 120°50'511.7
2018-Apr-25 18:00N 33°56' W 120°53'611.7
2018-Apr-25 17:30N 34°02' W 120°55'611.8
2018-Apr-25 17:00N 34°07' W 120°58'611.9
2018-Apr-25 16:30N 34°12' W 121°02'612.3
2018-Apr-25 16:00N 34°18' W 121°05'712.1
2018-Apr-25 15:27N 34°23' W 121°09'611.8
2018-Apr-25 14:59N 34°28' W 121°12'611.6
2018-Apr-25 14:28N 34°33' W 121°16'511.7
2018-Apr-25 14:00N 34°39' W 121°18'611.4
2018-Apr-25 13:30N 34°44' W 121°21'1011.6
2018-Apr-25 12:39N 34°52' W 121°27'211.7
2018-Apr-25 12:30N 34°54' W 121°27'611.6
2018-Apr-25 11:57N 34°60' W 121°31'511.6
2018-Apr-25 11:30N 35°04' W 121°34'611.7
2018-Apr-25 11:00N 35°09' W 121°37'611.7
2018-Apr-25 10:30N 35°15' W 121°40'1011.5
2018-Apr-25 09:40N 35°23' W 121°46'4511.4
2018-Apr-25 05:46N 36°03' W 122°10'311.2
2018-Apr-25 05:30N 36°06' W 122°12'611.6
2018-Apr-25 05:00N 36°11' W 122°15'611.9
2018-Apr-25 04:30N 36°16' W 122°18'1311.5
2018-Apr-25 03:23N 36°28' W 122°24'1111.5
2018-Apr-25 02:27N 36°39' W 122°29'511.6
2018-Apr-25 02:00N 36°43' W 122°31'611.4
2018-Apr-25 01:30N 36°49' W 122°33'611.4
2018-Apr-25 01:00N 36°54' W 122°36'611.4
2018-Apr-25 00:29N 36°60' W 122°39'511.5
2018-Apr-25 00:00N 37°05' W 122°41'611.7
2018-Apr-24 23:30N 37°10' W 122°44'611.7
2018-Apr-24 23:00N 37°16' W 122°44'611.5
2018-Apr-24 22:30N 37°22' W 122°44'511.0
2018-Apr-24 22:00N 37°27' W 122°44'510.7
2018-Apr-24 21:30N 37°33' W 122°43'511.0
2018-Apr-24 21:00N 37°38' W 122°43'510.7
2018-Apr-24 20:30N 37°43' W 122°42'510.1
2018-Apr-24 20:00N 37°46' W 122°37'815.4
2018-Apr-24 19:30N 37°50' W 122°28'5 9.4
2018-Apr-24 19:01N 37°54' W 122°27'713.7
2018-Apr-24 18:30N 38°01' W 122°24'611.4
2018-Apr-24 18:00N 38°03' W 122°17'610.4
2018-Apr-24 17:24N 38°02' W 122°10'2 0.1
2018-Apr-23 14:23N 38°03' W 122°08'1 1.4
2018-Apr-23 14:00N 38°02' W 122°08'3 5.7
2018-Apr-23 13:30N 38°03' W 122°12'5 8.7
2018-Apr-23 12:58N 38°03' W 122°18'4 8.2
2018-Apr-23 12:30N 38°02' W 122°22'5 9.9
2018-Apr-23 12:01N 37°58' W 122°26'510.0
2018-Apr-23 11:30N 37°53' W 122°26'4 8.5
2018-Apr-23 11:00N 37°49' W 122°26'510.0
2018-Apr-23 10:31N 37°48' W 122°32'612.2
2018-Apr-23 10:01N 37°45' W 122°39'5 9.0
2018-Apr-23 09:30N 37°41' W 122°40'5 9.1
2018-Apr-23 09:01N 37°37' W 122°40'4 8.0
2018-Apr-23 08:30N 37°33' W 122°40'5 9.9
2018-Apr-23 08:01N 37°28' W 122°40'611.5
2018-Apr-23 07:31N 37°22' W 122°40'611.4
2018-Apr-23 07:00N 37°16' W 122°39'611.1
2018-Apr-23 06:30N 37°11' W 122°39'510.8
2018-Apr-23 06:01N 37°05' W 122°38'510.8
2018-Apr-23 05:30N 37°00' W 122°36'510.4
2018-Apr-23 05:00N 36°55' W 122°34'510.5
2018-Apr-23 04:30N 36°50' W 122°32'510.2
2018-Apr-23 04:00N 36°46' W 122°29'510.3
2018-Apr-23 03:30N 36°41' W 122°27'510.3
2018-Apr-23 03:00N 36°36' W 122°24'510.5
2018-Apr-23 02:30N 36°31' W 122°22'610.7
2018-Apr-23 01:57N 36°26' W 122°19'1110.5
2018-Apr-23 00:55N 36°16' W 122°14'610.3
2018-Apr-23 00:20N 36°10' W 122°11'7 6.4
2018-Apr-22 23:14N 36°05' W 122°04'3 9.3
2018-Apr-22 22:57N 36°03' W 122°03'3610.7
2018-Apr-22 19:38N 35°33' W 121°40'210.6
2018-Apr-22 19:28N 35°32' W 121°39'510.5
2018-Apr-22 19:00N 35°27' W 121°36'510.4
2018-Apr-22 18:31N 35°22' W 121°33'510.4
2018-Apr-22 18:00N 35°18' W 121°30'510.4
2018-Apr-22 17:30N 35°13' W 121°27'510.4
2018-Apr-22 17:00N 35°08' W 121°25'510.5
2018-Apr-22 16:30N 35°04' W 121°22'510.3
2018-Apr-22 16:01N 34°59' W 121°19'510.4
2018-Apr-22 15:30N 34°54' W 121°16'510.7
2018-Apr-22 15:01N 34°50' W 121°13'510.6
2018-Apr-22 14:31N 34°45' W 121°11'510.4
2018-Apr-22 14:00N 34°40' W 121°08'510.5
2018-Apr-22 13:30N 34°35' W 121°05'510.3
2018-Apr-22 12:59N 34°31' W 121°02'510.2
2018-Apr-22 12:29N 34°26' W 120°59'510.2
2018-Apr-22 12:00N 34°22' W 120°57'510.6
2018-Apr-22 11:30N 34°17' W 120°54'510.8
2018-Apr-22 11:00N 34°12' W 120°51'611.0
2018-Apr-22 10:29N 34°07' W 120°48'510.7
2018-Apr-22 10:00N 34°02' W 120°45'510.5
2018-Apr-22 09:29N 33°58' W 120°42'510.5
2018-Apr-22 09:00N 33°55' W 120°37'611.2
2018-Apr-22 08:30N 33°52' W 120°31'611.1
2018-Apr-22 08:00N 33°50' W 120°25'611.2
2018-Apr-22 07:30N 33°47' W 120°19'611.1
2018-Apr-22 07:00N 33°44' W 120°13'510.7
2018-Apr-22 06:30N 33°42' W 120°07'510.9
2018-Apr-22 06:00N 33°41' W 120°01'611.8
2018-Apr-22 05:31N 33°41' W 119°54'611.8
2018-Apr-22 05:00N 33°41' W 119°47'611.7
2018-Apr-22 04:30N 33°40' W 119°40'611.7
2018-Apr-22 04:00N 33°39' W 119°33'612.2
2018-Apr-22 03:31N 33°39' W 119°26'611.8
2018-Apr-22 03:01N 33°39' W 119°19'712.4
2018-Apr-22 02:29N 33°38' W 119°11'612.0
2018-Apr-22 02:01N 33°37' W 119°04'611.2
2018-Apr-22 01:30N 33°36' W 118°57'611.2
2018-Apr-22 01:00N 33°36' W 118°51'711.6
2018-Apr-22 00:27N 33°35' W 118°43'511.1
2018-Apr-22 00:00N 33°34' W 118°37'611.2
2018-Apr-21 23:30N 33°33' W 118°31'611.2
2018-Apr-21 23:00N 33°33' W 118°24'611.6
2018-Apr-21 22:30N 33°36' W 118°18'611.1
2018-Apr-21 22:01N 33°40' W 118°13'4 8.1
2018-Apr-21 21:30N 33°43' W 118°11'3 5.4
2018-Apr-21 21:00N 33°45' W 118°13'1 1.7
2018-Apr-21 20:31N 33°46' W 118°13'0 0.0
2018-Apr-21 19:50N 33°46' W 118°13'0 0.0
2018-Apr-21 19:29N 33°46' W 118°13'0 0.0
2018-Apr-21 18:59N 33°46' W 118°13'0 0.0
2018-Apr-21 18:29N 33°46' W 118°13'0 0.0
2018-Apr-21 17:56N 33°46' W 118°13'0 0.0
2018-Apr-21 17:14N 33°46' W 118°13'0 0.0
2018-Apr-21 16:59N 33°46' W 118°13'0 0.0
2018-Apr-21 15:32N 33°46' W 118°13'0 0.0
2018-Apr-21 15:29N 33°46' W 118°13'0 0.0
2018-Apr-21 14:56N 33°46' W 118°13'0 0.0
2018-Apr-21 14:29N 33°46' W 118°13'0 0.0
2018-Apr-21 13:56N 33°46' W 118°13'0 0.0
2018-Apr-21 13:29N 33°46' W 118°13'0 0.0
2018-Apr-21 12:50N 33°46' W 118°13'0 0.0
2018-Apr-21 10:50N 33°46' W 118°13'0 0.0
2018-Apr-21 10:26N 33°46' W 118°13'0 0.0
2018-Apr-21 09:56N 33°46' W 118°13'0 0.0
2018-Apr-21 06:32N 33°46' W 118°13'0 0.0
2018-Apr-21 06:02N 33°46' W 118°13'0 0.1
2018-Apr-21 05:56N 33°46' W 118°13'0 0.0
2018-Apr-21 05:11N 33°46' W 118°13'0 0.0
2018-Apr-21 02:35N 33°46' W 118°13'0 0.0
2018-Apr-21 02:29N 33°46' W 118°13'0 0.0
2018-Apr-21 01:59N 33°46' W 118°13'0 0.0
2018-Apr-21 01:26N 33°46' W 118°13'0 0.0
2018-Apr-21 00:59N 33°46' W 118°13'0 0.0
2018-Apr-21 00:29N 33°46' W 118°13'0 0.0
2018-Apr-20 23:59N 33°46' W 118°13'0 0.0
2018-Apr-20 23:29N 33°46' W 118°13'0 0.0
2018-Apr-20 22:59N 33°46' W 118°13'0 0.0
2018-Apr-20 22:29N 33°46' W 118°13'0 0.0
2018-Apr-20 21:59N 33°46' W 118°13'0 0.0
2018-Apr-20 21:29N 33°46' W 118°13'0 0.0
2018-Apr-20 20:59N 33°46' W 118°13'0 0.0
2018-Apr-20 20:29N 33°46' W 118°13'0 0.0
2018-Apr-20 15:44N 33°46' W 118°13'0 0.0
2018-Apr-20 15:26N 33°46' W 118°13'0 0.0
2018-Apr-20 03:02N 33°46' W 118°13'0 0.0
2018-Apr-20 02:32N 33°46' W 118°13'0 0.1
2018-Apr-20 02:29N 33°46' W 118°13'0 0.0
2018-Apr-20 01:56N 33°46' W 118°13'0 0.0
2018-Apr-20 01:26N 33°46' W 118°13'0 0.0
2018-Apr-20 00:56N 33°46' W 118°13'0 0.0
2018-Apr-20 00:26N 33°46' W 118°13'0 0.0
2018-Apr-19 23:53N 33°46' W 118°13'0 0.1
2018-Apr-19 23:26N 33°46' W 118°13'0 0.1
2018-Apr-19 22:56N 33°46' W 118°13'0 0.0
2018-Apr-19 22:26N 33°46' W 118°13'0 0.0
2018-Apr-19 21:58N 33°46' W 118°13'0 0.0
2018-Apr-19 21:11N 33°46' W 118°13'0 0.0
2018-Apr-19 20:56N 33°46' W 118°13'0 0.0
2018-Apr-19 20:20N 33°46' W 118°13'0 0.0
2018-Apr-19 19:59N 33°46' W 118°13'0 0.0
2018-Apr-19 19:30N 33°46' W 118°13'1 2.0
2018-Apr-19 19:00N 33°45' W 118°13'2 4.7
2018-Apr-19 18:30N 33°44' W 118°11'3 5.2
2018-Apr-19 18:00N 33°41' W 118°09'1 0.4
2018-Apr-19 16:34N 33°41' W 118°09'0 0.0
2018-Apr-19 16:28N 33°41' W 118°09'0 0.1
2018-Apr-19 15:58N 33°41' W 118°09'0 0.0
2018-Apr-19 15:28N 33°41' W 118°09'0 0.0
2018-Apr-19 14:58N 33°41' W 118°09'0 0.0
2018-Apr-19 14:28N 33°41' W 118°09'0 0.0
2018-Apr-19 13:58N 33°41' W 118°09'0 0.0
2018-Apr-19 13:28N 33°41' W 118°09'0 0.0
2018-Apr-19 10:22N 33°41' W 118°09'1 0.3
2018-Apr-19 08:03N 33°40' W 118°09'0 5.2
2018-Apr-19 08:00N 33°40' W 118°09'2410.0
2018-Apr-19 05:35N 33°17' W 118°02'110.4
2018-Apr-19 05:30N 33°16' W 118°01'510.4
2018-Apr-19 05:00N 33°11' W 118°02'710.0
2018-Apr-19 04:21N 33°04' W 118°03'4 9.7
2018-Apr-19 03:57N 33°00' W 118°03'510.2
2018-Apr-19 03:30N 32°56' W 118°03'1110.4
2018-Apr-19 02:26N 32°46' W 118°10'29 9.2
2018-Apr-18 23:20N 32°23' W 118°30'411.5
2018-Apr-18 23:00N 32°19' W 118°31'611.5
2018-Apr-18 22:30N 32°14' W 118°32'109 2.3
2018-Apr-16 23:17N 33°10' W 120°24'312.2
2018-Apr-16 23:00N 33°13' W 120°26'612.1
2018-Apr-16 22:28N 33°19' W 120°29'611.8
2018-Apr-16 21:59N 33°24' W 120°33'611.9
2018-Apr-16 21:30N 33°29' W 120°36'612.1
2018-Apr-16 20:59N 33°35' W 120°39'611.9
2018-Apr-16 20:31N 33°40' W 120°41'612.1
2018-Apr-16 20:00N 33°46' W 120°44'611.9
2018-Apr-16 19:30N 33°51' W 120°48'612.2
2018-Apr-16 19:00N 33°56' W 120°51'612.3
2018-Apr-16 18:30N 34°01' W 120°55'612.0
2018-Apr-16 18:00N 34°07' W 120°58'612.2
2018-Apr-16 17:30N 34°12' W 121°02'612.0
2018-Apr-16 17:00N 34°17' W 121°05'612.0
2018-Apr-16 16:30N 34°23' W 121°08'612.1
2018-Apr-16 16:00N 34°28' W 121°12'612.1
2018-Apr-16 15:30N 34°34' W 121°15'611.7
2018-Apr-16 15:00N 34°39' W 121°18'611.3
2018-Apr-16 14:29N 34°44' W 121°21'1011.5
2018-Apr-16 13:36N 34°53' W 121°27'111.6
2018-Apr-16 13:29N 34°54' W 121°28'1011.5
2018-Apr-16 12:35N 35°04' W 121°33'111.7
2018-Apr-16 12:30N 35°04' W 121°34'12711.4
2018-Apr-16 01:22N 37°01' W 122°38'411.6
2018-Apr-16 00:59N 37°05' W 122°40'611.9
2018-Apr-16 00:30N 37°11' W 122°41'611.7
2018-Apr-16 00:00N 37°16' W 122°43'611.1
2018-Apr-15 23:30N 37°22' W 122°44'  
Track history (hours):
 
Tides and Currents Weather Stations Pressure Air Temp Water Temp Dewpoint Dewpoint Depression Visibility Wind Speed Wind Dir Waves Ship Positions

Paramount Hydra

Last reported at 2018-Apr-25 23:16 UTC. Time now 2018-Apr-26 11:27 UTC.
Position N 33°01' W 120°14'.

Length 250 m; draft 8.6 m.

Type: Tanker. MMSI: 235076283.

Date/timePositionNaut miles runAvg speedWind from/ knotsBaromVisibWave heightAir tempDewpointWater temp
2018-Apr-25 23:16N 33°01' W 120°14'313.0
2018-Apr-25 23:00N 33°04' W 120°16'612.3
2018-Apr-25 22:30N 33°09' W 120°21'611.9
2018-Apr-25 22:00N 33°14' W 120°25'612.0
2018-Apr-25 21:30N 33°19' W 120°28'612.3
2018-Apr-25 21:00N 33°24' W 120°33'612.5
2018-Apr-25 20:30N 33°29' W 120°36'612.4
2018-Apr-25 20:00N 33°35' W 120°39'612.2
2018-Apr-25 19:30N 33°40' W 120°42'612.0
2018-Apr-25 19:00N 33°46' W 120°46'611.9
2018-Apr-25 18:28N 33°51' W 120°50'511.7
2018-Apr-25 18:00N 33°56' W 120°53'611.7
2018-Apr-25 17:30N 34°02' W 120°55'611.8
2018-Apr-25 17:00N 34°07' W 120°58'611.9
2018-Apr-25 16:30N 34°12' W 121°02'612.3
2018-Apr-25 16:00N 34°18' W 121°05'712.1
2018-Apr-25 15:27N 34°23' W 121°09'611.8
2018-Apr-25 14:59N 34°28' W 121°12'611.6
2018-Apr-25 14:28N 34°33' W 121°16'511.7
2018-Apr-25 14:00N 34°39' W 121°18'611.4
2018-Apr-25 13:30N 34°44' W 121°21'1011.6
2018-Apr-25 12:39N 34°52' W 121°27'211.7
2018-Apr-25 12:30N 34°54' W 121°27'611.6
2018-Apr-25 11:57N 34°60' W 121°31'511.6
2018-Apr-25 11:30N 35°04' W 121°34'611.7
2018-Apr-25 11:00N 35°09' W 121°37'611.7
2018-Apr-25 10:30N 35°15' W 121°40'1011.5
2018-Apr-25 09:40N 35°23' W 121°46'4511.4
2018-Apr-25 05:46N 36°03' W 122°10'311.2
2018-Apr-25 05:30N 36°06' W 122°12'611.6
2018-Apr-25 05:00N 36°11' W 122°15'611.9
2018-Apr-25 04:30N 36°16' W 122°18'1311.5
2018-Apr-25 03:23N 36°28' W 122°24'1111.5
2018-Apr-25 02:27N 36°39' W 122°29'511.6
2018-Apr-25 02:00N 36°43' W 122°31'611.4
2018-Apr-25 01:30N 36°49' W 122°33'611.4
2018-Apr-25 01:00N 36°54' W 122°36'611.4
2018-Apr-25 00:29N 36°60' W 122°39'511.5
2018-Apr-25 00:00N 37°05' W 122°41'611.7
2018-Apr-24 23:30N 37°10' W 122°44'611.7
2018-Apr-24 23:00N 37°16' W 122°44'611.5
2018-Apr-24 22:30N 37°22' W 122°44'511.0
2018-Apr-24 22:00N 37°27' W 122°44'510.7
2018-Apr-24 21:30N 37°33' W 122°43'511.0
2018-Apr-24 21:00N 37°38' W 122°43'510.7
2018-Apr-24 20:30N 37°43' W 122°42'510.1
2018-Apr-24 20:00N 37°46' W 122°37'815.4
2018-Apr-24 19:30N 37°50' W 122°28'5 9.4
2018-Apr-24 19:01N 37°54' W 122°27'713.7
2018-Apr-24 18:30N 38°01' W 122°24'611.4
2018-Apr-24 18:00N 38°03' W 122°17'610.4
2018-Apr-24 17:24N 38°02' W 122°10'2 0.1
2018-Apr-23 14:23N 38°03' W 122°08'1 1.4
2018-Apr-23 14:00N 38°02' W 122°08'3 5.7
2018-Apr-23 13:30N 38°03' W 122°12'5 8.7
2018-Apr-23 12:58N 38°03' W 122°18'4 8.2
2018-Apr-23 12:30N 38°02' W 122°22'5 9.9
2018-Apr-23 12:01N 37°58' W 122°26'510.0
2018-Apr-23 11:30N 37°53' W 122°26'4 8.5
2018-Apr-23 11:00N 37°49' W 122°26'510.0
2018-Apr-23 10:31N 37°48' W 122°32'612.2
2018-Apr-23 10:01N 37°45' W 122°39'5 9.0
2018-Apr-23 09:30N 37°41' W 122°40'5 9.1
2018-Apr-23 09:01N 37°37' W 122°40'4 8.0
2018-Apr-23 08:30N 37°33' W 122°40'5 9.9
2018-Apr-23 08:01N 37°28' W 122°40'611.5
2018-Apr-23 07:31N 37°22' W 122°40'611.4
2018-Apr-23 07:00N 37°16' W 122°39'611.1
2018-Apr-23 06:30N 37°11' W 122°39'510.8
2018-Apr-23 06:01N 37°05' W 122°38'510.8
2018-Apr-23 05:30N 37°00' W 122°36'510.4
2018-Apr-23 05:00N 36°55' W 122°34'510.5
2018-Apr-23 04:30N 36°50' W 122°32'510.2
2018-Apr-23 04:00N 36°46' W 122°29'510.3
2018-Apr-23 03:30N 36°41' W 122°27'510.3
2018-Apr-23 03:00N 36°36' W 122°24'510.5
2018-Apr-23 02:30N 36°31' W 122°22'610.7
2018-Apr-23 01:57N 36°26' W 122°19'1110.5
2018-Apr-23 00:55N 36°16' W 122°14'610.3
2018-Apr-23 00:20N 36°10' W 122°11'7 6.4
2018-Apr-22 23:14N 36°05' W 122°04'3 9.3
2018-Apr-22 22:57N 36°03' W 122°03'3610.7
2018-Apr-22 19:38N 35°33' W 121°40'210.6
2018-Apr-22 19:28N 35°32' W 121°39'510.5
2018-Apr-22 19:00N 35°27' W 121°36'510.4
2018-Apr-22 18:31N 35°22' W 121°33'510.4
2018-Apr-22 18:00N 35°18' W 121°30'510.4
2018-Apr-22 17:30N 35°13' W 121°27'510.4
2018-Apr-22 17:00N 35°08' W 121°25'510.5
2018-Apr-22 16:30N 35°04' W 121°22'510.3
2018-Apr-22 16:01N 34°59' W 121°19'510.4
2018-Apr-22 15:30N 34°54' W 121°16'510.7
2018-Apr-22 15:01N 34°50' W 121°13'510.6
2018-Apr-22 14:31N 34°45' W 121°11'510.4
2018-Apr-22 14:00N 34°40' W 121°08'510.5
2018-Apr-22 13:30N 34°35' W 121°05'510.3
2018-Apr-22 12:59N 34°31' W 121°02'510.2
2018-Apr-22 12:29N 34°26' W 120°59'510.2
2018-Apr-22 12:00N 34°22' W 120°57'510.6
2018-Apr-22 11:30N 34°17' W 120°54'510.8
2018-Apr-22 11:00N 34°12' W 120°51'611.0
2018-Apr-22 10:29N 34°07' W 120°48'510.7
2018-Apr-22 10:00N 34°02' W 120°45'510.5
2018-Apr-22 09:29N 33°58' W 120°42'510.5
2018-Apr-22 09:00N 33°55' W 120°37'611.2
2018-Apr-22 08:30N 33°52' W 120°31'611.1
2018-Apr-22 08:00N 33°50' W 120°25'611.2
2018-Apr-22 07:30N 33°47' W 120°19'611.1
2018-Apr-22 07:00N 33°44' W 120°13'510.7
2018-Apr-22 06:30N 33°42' W 120°07'510.9
2018-Apr-22 06:00N 33°41' W 120°01'611.8
2018-Apr-22 05:31N 33°41' W 119°54'611.8
2018-Apr-22 05:00N 33°41' W 119°47'611.7
2018-Apr-22 04:30N 33°40' W 119°40'611.7
2018-Apr-22 04:00N 33°39' W 119°33'612.2
2018-Apr-22 03:31N 33°39' W 119°26'611.8
2018-Apr-22 03:01N 33°39' W 119°19'712.4
2018-Apr-22 02:29N 33°38' W 119°11'612.0
2018-Apr-22 02:01N 33°37' W 119°04'611.2
2018-Apr-22 01:30N 33°36' W 118°57'611.2
2018-Apr-22 01:00N 33°36' W 118°51'711.6
2018-Apr-22 00:27N 33°35' W 118°43'511.1
2018-Apr-22 00:00N 33°34' W 118°37'611.2
2018-Apr-21 23:30N 33°33' W 118°31'611.2
2018-Apr-21 23:00N 33°33' W 118°24'611.6
2018-Apr-21 22:30N 33°36' W 118°18'611.1
2018-Apr-21 22:01N 33°40' W 118°13'4 8.1
2018-Apr-21 21:30N 33°43' W 118°11'3 5.4
2018-Apr-21 21:00N 33°45' W 118°13'1 1.7
2018-Apr-21 20:31N 33°46' W 118°13'0 0.0
2018-Apr-21 19:50N 33°46' W 118°13'0 0.0
2018-Apr-21 19:29N 33°46' W 118°13'0 0.0
2018-Apr-21 18:59N 33°46' W 118°13'0 0.0
2018-Apr-21 18:29N 33°46' W 118°13'0 0.0
2018-Apr-21 17:56N 33°46' W 118°13'0 0.0
2018-Apr-21 17:14N 33°46' W 118°13'0 0.0
2018-Apr-21 16:59N 33°46' W 118°13'0 0.0
2018-Apr-21 15:32N 33°46' W 118°13'0 0.0
2018-Apr-21 15:29N 33°46' W 118°13'0 0.0
2018-Apr-21 14:56N 33°46' W 118°13'0 0.0
2018-Apr-21 14:29N 33°46' W 118°13'0 0.0
2018-Apr-21 13:56N 33°46' W 118°13'0 0.0
2018-Apr-21 13:29N 33°46' W 118°13'0 0.0
2018-Apr-21 12:50N 33°46' W 118°13'0 0.0
2018-Apr-21 10:50N 33°46' W 118°13'0 0.0
2018-Apr-21 10:26N 33°46' W 118°13'0 0.0
2018-Apr-21 09:56N 33°46' W 118°13'0 0.0
2018-Apr-21 06:32N 33°46' W 118°13'0 0.0
2018-Apr-21 06:02N 33°46' W 118°13'0 0.1
2018-Apr-21 05:56N 33°46' W 118°13'0 0.0
2018-Apr-21 05:11N 33°46' W 118°13'0 0.0
2018-Apr-21 02:35N 33°46' W 118°13'0 0.0
2018-Apr-21 02:29N 33°46' W 118°13'0 0.0
2018-Apr-21 01:59N 33°46' W 118°13'0 0.0
2018-Apr-21 01:26N 33°46' W 118°13'0 0.0
2018-Apr-21 00:59N 33°46' W 118°13'0 0.0
2018-Apr-21 00:29N 33°46' W 118°13'0 0.0
2018-Apr-20 23:59N 33°46' W 118°13'0 0.0
2018-Apr-20 23:29N 33°46' W 118°13'0 0.0
2018-Apr-20 22:59N 33°46' W 118°13'0 0.0
2018-Apr-20 22:29N 33°46' W 118°13'0 0.0
2018-Apr-20 21:59N 33°46' W 118°13'0 0.0
2018-Apr-20 21:29N 33°46' W 118°13'0 0.0
2018-Apr-20 20:59N 33°46' W 118°13'0 0.0
2018-Apr-20 20:29N 33°46' W 118°13'0 0.0
2018-Apr-20 15:44N 33°46' W 118°13'0 0.0
2018-Apr-20 15:26N 33°46' W 118°13'0 0.0
2018-Apr-20 03:02N 33°46' W 118°13'0 0.0
2018-Apr-20 02:32N 33°46' W 118°13'0 0.1
2018-Apr-20 02:29N 33°46' W 118°13'0 0.0
2018-Apr-20 01:56N 33°46' W 118°13'0 0.0
2018-Apr-20 01:26N 33°46' W 118°13'0 0.0
2018-Apr-20 00:56N 33°46' W 118°13'0 0.0
2018-Apr-20 00:26N 33°46' W 118°13'0 0.0
2018-Apr-19 23:53N 33°46' W 118°13'0 0.1
2018-Apr-19 23:26N 33°46' W 118°13'0 0.1
2018-Apr-19 22:56N 33°46' W 118°13'0 0.0
2018-Apr-19 22:26N 33°46' W 118°13'0 0.0
2018-Apr-19 21:58N 33°46' W 118°13'0 0.0
2018-Apr-19 21:11N 33°46' W 118°13'0 0.0
2018-Apr-19 20:56N 33°46' W 118°13'0 0.0
2018-Apr-19 20:20N 33°46' W 118°13'0 0.0
2018-Apr-19 19:59N 33°46' W 118°13'0 0.0
2018-Apr-19 19:30N 33°46' W 118°13'1 2.0
2018-Apr-19 19:00N 33°45' W 118°13'2 4.7
2018-Apr-19 18:30N 33°44' W 118°11'3 5.2
2018-Apr-19 18:00N 33°41' W 118°09'1 0.4
2018-Apr-19 16:34N 33°41' W 118°09'0 0.0
2018-Apr-19 16:28N 33°41' W 118°09'0 0.1
2018-Apr-19 15:58N 33°41' W 118°09'0 0.0
2018-Apr-19 15:28N 33°41' W 118°09'0 0.0
2018-Apr-19 14:58N 33°41' W 118°09'0 0.0
2018-Apr-19 14:28N 33°41' W 118°09'0 0.0
2018-Apr-19 13:58N 33°41' W 118°09'0 0.0
2018-Apr-19 13:28N 33°41' W 118°09'0 0.0
2018-Apr-19 10:22N 33°41' W 118°09'1 0.3
2018-Apr-19 08:03N 33°40' W 118°09'0 5.2
2018-Apr-19 08:00N 33°40' W 118°09'2410.0
2018-Apr-19 05:35N 33°17' W 118°02'110.4
2018-Apr-19 05:30N 33°16' W 118°01'510.4
2018-Apr-19 05:00N 33°11' W 118°02'710.0
2018-Apr-19 04:21N 33°04' W 118°03'4 9.7
2018-Apr-19 03:57N 33°00' W 118°03'510.2
2018-Apr-19 03:30N 32°56' W 118°03'1110.4
2018-Apr-19 02:26N 32°46' W 118°10'29 9.2
2018-Apr-18 23:20N 32°23' W 118°30'411.5
2018-Apr-18 23:00N 32°19' W 118°31'611.5
2018-Apr-18 22:30N 32°14' W 118°32'109 2.3
2018-Apr-16 23:17N 33°10' W 120°24'312.2
2018-Apr-16 23:00N 33°13' W 120°26'612.1
2018-Apr-16 22:28N 33°19' W 120°29'611.8
2018-Apr-16 21:59N 33°24' W 120°33'611.9
2018-Apr-16 21:30N 33°29' W 120°36'612.1
2018-Apr-16 20:59N 33°35' W 120°39'611.9
2018-Apr-16 20:31N 33°40' W 120°41'612.1
2018-Apr-16 20:00N 33°46' W 120°44'611.9
2018-Apr-16 19:30N 33°51' W 120°48'612.2
2018-Apr-16 19:00N 33°56' W 120°51'612.3
2018-Apr-16 18:30N 34°01' W 120°55'612.0
2018-Apr-16 18:00N 34°07' W 120°58'612.2
2018-Apr-16 17:30N 34°12' W 121°02'612.0
2018-Apr-16 17:00N 34°17' W 121°05'612.0
2018-Apr-16 16:30N 34°23' W 121°08'612.1
2018-Apr-16 16:00N 34°28' W 121°12'612.1
2018-Apr-16 15:30N 34°34' W 121°15'611.7
2018-Apr-16 15:00N 34°39' W 121°18'611.3
2018-Apr-16 14:29N 34°44' W 121°21'1011.5
2018-Apr-16 13:36N 34°53' W 121°27'111.6
2018-Apr-16 13:29N 34°54' W 121°28'1011.5
2018-Apr-16 12:35N 35°04' W 121°33'111.7
2018-Apr-16 12:30N 35°04' W 121°34'12711.4
2018-Apr-16 01:22N 37°01' W 122°38'411.6
2018-Apr-16 00:59N 37°05' W 122°40'611.9
2018-Apr-16 00:30N 37°11' W 122°41'611.7
2018-Apr-16 00:00N 37°16' W 122°43'611.1
2018-Apr-15 23:30N 37°22' W 122°44'  

Dump ship's entire track history